Time;durP1;ratioP1;P1;durP2;ratioP2;P2;SDS_P1;SDS_P2;PMS_P1;PMS_P2;Temp;Humidity;BMP_temperature;BMP_pressure;BME280_temperature;BME280_humidity;BME280_pressure;Samples;Min_cycle;Max_cycle;Signal;HPM_P1;HPM_P2
2022/05/23 00:01:46;;;;;;;6.03;3.10;;;21.60;52.00;;;;;;5033280;28;20483;-77
2022/05/23 00:04:11;;;;;;;4.90;3.30;;;21.70;51.90;;;;;;5032846;28;20117;-82
2022/05/23 00:06:37;;;;;;;6.38;3.15;;;21.70;51.70;;;;;;5032607;28;20028;-77
2022/05/23 00:09:03;;;;;;;5.55;3.58;;;21.70;51.90;;;;;;5033138;28;20534;-78
2022/05/23 00:11:29;;;;;;;6.25;3.33;;;21.50;52.20;;;;;;5031734;28;20021;-81
2022/05/23 00:13:55;;;;;;;4.95;3.33;;;21.50;52.20;;;;;;5032972;28;20033;-78
2022/05/23 00:16:24;;;;;;;5.53;3.45;;;21.50;52.20;;;;;;5031456;28;20025;-78
2022/05/23 00:18:51;;;;;;;4.93;3.30;;;21.40;52.40;;;;;;5033054;28;20041;-79
2022/05/23 00:21:18;;;;;;;5.60;3.30;;;21.40;52.50;;;;;;5032748;28;20029;-80
2022/05/23 00:23:44;;;;;;;6.47;3.63;;;21.30;52.70;;;;;;5032504;28;20033;-78
2022/05/23 00:26:12;;;;;;;5.45;3.60;;;21.30;52.80;;;;;;5032664;28;20025;-81
2022/05/23 00:28:39;;;;;;;5.43;3.50;;;21.20;52.90;;;;;;5031878;28;20030;-81
2022/05/23 00:31:10;;;;;;;5.13;3.70;;;21.20;53.20;;;;;;5031154;28;20112;-79
2022/05/23 00:36:23;;;;;;;8.73;3.60;;;20.90;53.30;;;;;;5036242;28;20029;-82
2022/05/23 00:38:49;;;;;;;5.30;3.42;;;20.80;53.80;;;;;;5037142;28;20033;-78
2022/05/23 00:44:35;;;;;;;5.03;3.83;;;20.90;54.20;;;;;;5014989;28;20064;-80
2022/05/23 00:47:17;;;;;;;5.75;3.85;;;20.80;54.40;;;;;;5014819;28;20424;-79
2022/05/23 00:49:43;;;;;;;5.55;3.72;;;20.60;54.60;;;;;;4998240;28;20531;-78
2022/05/23 00:52:15;;;;;;;4.63;3.65;;;20.50;54.80;;;;;;5015795;28;20068;-79
2022/05/23 00:54:46;;;;;;;4.90;3.70;;;20.50;54.80;;;;;;5014513;28;20026;-78
2022/05/23 00:57:16;;;;;;;5.00;3.67;;;20.50;54.80;;;;;;5015000;28;20113;-79
2022/05/23 00:59:42;;;;;;;5.30;3.35;;;20.50;54.90;;;;;;4998489;28;20121;-83
2022/05/23 01:02:11;;;;;;;6.43;3.40;;;20.40;54.70;;;;;;5014178;28;20080;-78
2022/05/23 01:04:38;;;;;;;4.95;3.47;;;20.40;54.80;;;;;;5014188;28;20073;-79
2022/05/23 01:07:04;;;;;;;7.88;3.88;;;20.30;55.00;;;;;;4999091;28;20116;-80
2022/05/23 01:09:30;;;;;;;7.10;3.70;;;20.20;55.10;;;;;;4998104;28;20404;-77
2022/05/23 01:11:58;;;;;;;4.82;3.50;;;20.20;54.90;;;;;;5015003;28;20064;-87
2022/05/23 01:14:24;;;;;;;5.32;3.50;;;20.20;54.80;;;;;;5032396;28;20497;-80
2022/05/23 01:16:50;;;;;;;6.80;3.60;;;20.10;54.80;;;;;;5014726;28;20030;-89
2022/05/23 01:19:16;;;;;;;4.72;3.60;;;19.80;55.70;;;;;;5036298;28;20365;-80
2022/05/23 01:21:58;;;;;;;5.43;3.35;;;19.50;56.30;;;;;;5034696;28;20032;-81
2022/05/23 01:24:32;;;;;;;6.18;3.60;;;19.60;56.90;;;;;;5067939;28;20037;-80
2022/05/23 01:26:58;;;;;;;4.68;3.70;;;19.70;56.20;;;;;;5035981;28;20021;-80
2022/05/23 01:29:24;;;;;;;6.95;3.60;;;19.80;55.70;;;;;;5036251;28;20040;-78
2022/05/23 01:31:50;;;;;;;6.88;3.70;;;19.70;56.00;;;;;;5034554;28;20040;-83
2022/05/23 01:34:15;;;;;;;8.23;4.03;;;19.60;56.30;;;;;;5035715;28;20532;-80
2022/05/23 01:36:44;;;;;;;6.30;3.47;;;19.40;56.90;;;;;;5035436;28;20034;-88
2022/05/23 01:39:10;;;;;;;7.05;3.85;;;19.50;56.50;;;;;;5036188;28;20087;-79
2022/05/23 01:41:35;;;;;;;5.85;3.42;;;19.50;56.60;;;;;;5036169;28;20407;-81
2022/05/23 01:44:01;;;;;;;5.05;3.47;;;19.30;56.40;;;;;;5035439;28;20037;-77
2022/05/23 01:46:27;;;;;;;7.72;4.10;;;19.20;56.90;;;;;;5033987;28;20050;-75
2022/05/23 01:48:52;;;;;;;4.90;3.72;;;19.10;57.10;;;;;;5034519;28;20033;-84
2022/05/23 01:51:19;;;;;;;5.78;3.80;;;19.40;56.60;;;;;;5034483;28;20384;-81
2022/05/23 01:53:45;;;;;;;5.78;3.70;;;19.40;56.60;;;;;;5034222;28;20384;-80
2022/05/23 01:56:11;;;;;;;8.50;3.85;;;19.40;56.80;;;;;;5035822;28;20029;-90
2022/05/23 02:01:21;;;;;;;6.30;3.90;;;19.40;57.00;;;;;;5035533;28;20032;-78
2022/05/23 02:03:48;;;;;;;6.10;3.83;;;19.40;56.60;;;;;;5036277;28;20036;-77
2022/05/23 02:06:14;;;;;;;6.75;3.90;;;19.10;57.10;;;;;;5035128;28;20025;-78
2022/05/23 02:08:40;;;;;;;8.52;4.18;;;19.30;56.80;;;;;;5034164;28;20025;-76
2022/05/23 02:11:06;;;;;;;5.40;3.80;;;19.40;56.50;;;;;;5034980;28;20454;-83
2022/05/23 02:13:34;;;;;;;5.97;3.67;;;19.50;56.50;;;;;;5035107;28;20025;-83
2022/05/23 02:16:00;;;;;;;7.93;4.07;;;19.50;56.30;;;;;;5033873;28;20508;-77
2022/05/23 02:18:27;;;;;;;5.63;4.10;;;19.50;56.40;;;;;;5034874;28;20030;-80
2022/05/23 02:20:53;;;;;;;7.07;4.20;;;19.50;56.20;;;;;;5033794;28;20541;-81
2022/05/23 02:23:19;;;;;;;5.93;4.13;;;19.40;56.60;;;;;;5034046;28;20041;-77
2022/05/23 02:25:45;;;;;;;6.05;4.20;;;19.50;56.70;;;;;;5034694;28;20033;-79
2022/05/23 02:28:12;;;;;;;6.47;4.03;;;19.40;56.60;;;;;;5033574;28;20064;-81
2022/05/23 02:30:37;;;;;;;6.45;4.00;;;19.50;56.50;;;;;;5035123;28;20021;-78
2022/05/23 02:33:03;;;;;;;5.75;3.78;;;19.40;56.20;;;;;;5034768;28;20084;-77
2022/05/23 02:35:29;;;;;;;5.15;3.63;;;19.40;56.00;;;;;;5033427;28;20028;-78
2022/05/23 02:37:55;;;;;;;7.00;3.63;;;19.30;55.70;;;;;;5033397;28;20544;-77
2022/05/23 02:40:21;;;;;;;5.60;3.97;;;19.30;55.40;;;;;;5033758;28;20025;-77
2022/05/23 02:42:47;;;;;;;7.43;3.90;;;19.10;55.70;;;;;;5040353;28;20029;-77
2022/05/23 02:45:13;;;;;;;6.38;3.80;;;19.00;56.00;;;;;;5054805;28;20059;-76
2022/05/23 02:47:39;;;;;;;5.50;3.80;;;19.20;56.00;;;;;;5054345;28;20079;-76
2022/05/23 02:50:06;;;;;;;5.47;3.83;;;19.20;55.90;;;;;;5054252;28;20033;-74
2022/05/23 02:52:32;;;;;;;4.85;3.65;;;19.30;55.90;;;;;;5054322;28;20537;-88
2022/05/23 02:54:57;;;;;;;5.80;3.97;;;19.40;56.00;;;;;;5053108;28;20032;-76
2022/05/23 02:57:24;;;;;;;7.35;4.10;;;19.40;55.80;;;;;;5043207;28;20057;-76
2022/05/23 02:59:49;;;;;;;6.80;4.20;;;19.20;56.10;;;;;;5033193;28;20033;-77
2022/05/23 03:04:59;;;;;;;6.40;4.53;;;19.10;56.50;;;;;;5035028;28;20056;-86
2022/05/23 03:07:25;;;;;;;7.00;4.40;;;19.10;57.00;;;;;;5033103;28;20468;-78
2022/05/23 03:09:50;;;;;;;8.15;4.65;;;19.00;56.80;;;;;;5034251;28;20033;-74
2022/05/23 03:12:16;;;;;;;6.47;4.18;;;19.00;57.00;;;;;;5034349;28;20029;-75
2022/05/23 03:14:41;;;;;;;5.65;4.38;;;19.10;56.80;;;;;;5033700;28;20100;-78
2022/05/23 03:17:08;;;;;;;5.78;3.72;;;19.00;56.50;;;;;;5032436;28;20526;-76
2022/05/23 03:19:39;;;;;;;6.13;4.30;;;19.10;56.60;;;;;;5034206;28;20021;-75
2022/05/23 03:27:36;;;;;;;6.00;3.72;;;18.90;57.00;;;;;;5033673;28;20036;-77
2022/05/23 03:30:02;;;;;;;9.10;4.63;;;18.80;57.40;;;;;;5032077;28;20037;-77
2022/05/23 03:32:28;;;;;;;6.20;4.28;;;18.70;57.70;;;;;;5033610;28;20021;-77
2022/05/23 03:34:53;;;;;;;5.75;4.20;;;18.70;57.70;;;;;;5034264;28;20436;-75
2022/05/23 03:37:19;;;;;;;6.15;4.10;;;18.80;57.50;;;;;;5032616;28;20026;-75
2022/05/23 03:39:45;;;;;;;6.40;3.70;;;18.80;57.50;;;;;;5032505;28;20009;-79
2022/05/23 03:42:10;;;;;;;5.57;3.75;;;18.90;57.40;;;;;;5033035;28;20028;-75
2022/05/23 03:44:36;;;;;;;7.43;4.20;;;19.10;57.10;;;;;;5032049;28;20033;-77
2022/05/23 03:47:03;;;;;;;6.03;3.72;;;19.20;56.40;;;;;;5034700;28;20385;-76
2022/05/23 03:49:30;;;;;;;6.22;3.95;;;19.30;56.50;;;;;;5033805;28;20495;-74
2022/05/23 03:51:56;;;;;;;5.50;3.60;;;19.40;56.40;;;;;;5031763;28;20068;-74
2022/05/23 03:54:22;;;;;;;5.43;3.80;;;19.60;56.00;;;;;;5034598;28;20029;-76
2022/05/23 03:56:47;;;;;;;5.75;3.92;;;19.70;55.90;;;;;;5033093;28;20025;-76
2022/05/23 03:59:13;;;;;;;8.85;4.53;;;19.60;56.30;;;;;;5032117;28;20044;-77
2022/05/23 04:01:39;;;;;;;6.85;4.15;;;19.60;56.60;;;;;;5032944;28;20498;-81
2022/05/23 04:04:04;;;;;;;8.48;3.85;;;19.60;56.60;;;;;;5033645;28;20030;-77
2022/05/23 04:06:30;;;;;;;5.75;3.60;;;19.60;56.70;;;;;;5033332;28;20025;-74
2022/05/23 04:08:56;;;;;;;6.00;4.03;;;19.80;56.50;;;;;;5031485;28;20026;-76
2022/05/23 04:11:22;;;;;;;5.00;3.78;;;19.90;56.20;;;;;;5032938;28;20017;-78
2022/05/23 04:13:48;;;;;;;6.43;3.67;;;20.00;55.90;;;;;;5032741;28;20415;-78
2022/05/23 04:16:14;;;;;;;5.80;3.70;;;20.00;55.80;;;;;;5033761;28;20033;-77
2022/05/23 04:18:40;;;;;;;5.63;3.85;;;20.00;55.80;;;;;;5031512;28;20033;-76
2022/05/23 04:21:06;;;;;;;5.47;4.03;;;20.10;55.80;;;;;;5032810;28;20030;-76
2022/05/23 04:23:32;;;;;;;7.18;3.92;;;20.20;55.90;;;;;;5032389;28;20069;-76
2022/05/23 04:26:07;;;;;;;5.35;3.60;;;20.40;55.80;;;;;;5033498;28;20026;-76
2022/05/23 04:28:32;;;;;;;6.18;3.60;;;20.50;55.40;;;;;;5033539;28;20025;-75
2022/05/23 04:30:58;;;;;;;5.75;3.45;;;20.60;55.30;;;;;;5032581;28;20036;-78
2022/05/23 04:36:09;;;;;;;4.93;3.40;;;20.70;54.30;;;;;;5032647;28;20064;-76
2022/05/23 04:38:35;;;;;;;4.30;3.10;;;20.80;54.20;;;;;;5032788;28;20052;-76
2022/05/23 04:41:00;;;;;;;4.90;3.03;;;20.40;55.20;;;;;;5031087;28;20026;-77
2022/05/23 04:43:26;;;;;;;5.30;3.20;;;20.50;55.10;;;;;;5032238;28;20049;-77
2022/05/23 04:45:52;;;;;;;5.30;3.38;;;20.80;54.50;;;;;;5032906;28;20101;-76
2022/05/23 04:51:02;;;;;;;4.60;3.20;;;21.20;53.40;;;;;;5032301;28;20117;-77
2022/05/23 04:53:28;;;;;;;5.22;3.08;;;21.30;53.50;;;;;;5032574;28;20392;-78
2022/05/23 04:55:54;;;;;;;5.55;3.10;;;21.40;53.80;;;;;;5032303;28;20037;-78
2022/05/23 04:58:20;;;;;;;4.72;3.22;;;21.30;53.70;;;;;;5032172;28;20112;-77
2022/05/23 05:00:46;;;;;;;5.75;3.40;;;21.10;53.80;;;;;;5032207;28;20030;-79
2022/05/23 05:03:12;;;;;;;5.05;3.15;;;20.90;54.70;;;;;;5031995;28;20037;-77
2022/05/23 05:05:37;;;;;;;6.07;3.40;;;21.20;54.40;;;;;;5031382;28;20538;-77
2022/05/23 05:08:04;;;;;;;4.88;3.42;;;21.40;54.00;;;;;;5049877;28;20036;-82
2022/05/23 05:10:30;;;;;;;5.25;3.60;;;21.40;53.70;;;;;;5055854;28;20439;-76
2022/05/23 05:12:57;;;;;;;7.80;3.53;;;21.60;53.60;;;;;;5051768;28;20020;-84
2022/05/23 05:15:25;;;;;;;4.35;2.80;;;21.70;53.30;;;;;;5050519;28;20033;-78
2022/05/23 05:17:50;;;;;;;9.32;3.20;;;21.50;52.90;;;;;;5049700;28;20032;-75
2022/05/23 05:20:18;;;;;;;3.75;2.80;;;20.30;54.70;;;;;;5050984;28;20021;-74
2022/05/23 05:22:44;;;;;;;4.40;2.97;;;19.60;56.90;;;;;;5048369;28;20071;-77
2022/05/23 05:25:11;;;;;;;4.30;2.90;;;19.80;57.20;;;;;;5056161;28;20052;-74
2022/05/23 05:27:37;;;;;;;4.03;2.70;;;19.30;58.40;;;;;;5055057;28;20428;-76
2022/05/23 05:30:06;;;;;;;4.00;2.90;;;19.20;58.50;;;;;;5053690;28;20031;-77
2022/05/23 05:32:50;;;;;;;5.93;3.10;;;19.50;58.10;;;;;;5050651;28;20021;-77
2022/05/23 05:35:40;;;;;;;6.80;3.28;;;20.00;57.60;;;;;;5051855;28;20475;-76
2022/05/23 05:38:15;;;;;;;5.32;3.28;;;20.20;57.30;;;;;;5052426;28;20031;-79
2022/05/23 05:40:44;;;;;;;5.47;3.05;;;21.00;56.00;;;;;;5053988;28;20056;-78
2022/05/23 05:43:15;;;;;;;6.68;2.83;;;21.40;54.80;;;;;;5047121;28;20075;-78
2022/05/23 05:45:47;;;;;;;4.57;2.83;;;21.80;53.80;;;;;;5062849;28;20025;-78
2022/05/23 05:48:13;;;;;;;6.85;3.30;;;22.10;53.50;;;;;;5050047;28;20405;-81
2022/05/23 05:50:41;;;;;;;3.90;2.70;;;22.20;53.30;;;;;;5050985;28;20044;-78
2022/05/23 05:53:11;;;;;;;5.68;2.80;;;22.50;52.80;;;;;;5073790;28;20028;-79
2022/05/23 05:55:38;;;;;;;5.15;2.88;;;22.70;52.30;;;;;;5074834;28;20103;-76
2022/05/23 05:58:05;;;;;;;4.07;2.90;;;22.80;51.60;;;;;;5061137;28;20025;-78
2022/05/23 06:00:30;;;;;;;5.30;2.50;;;22.90;51.10;;;;;;5053572;28;20025;-81
2022/05/23 06:02:56;;;;;;;5.38;2.70;;;22.90;51.20;;;;;;5053807;28;20079;-79
2022/05/23 06:05:22;;;;;;;5.38;3.20;;;22.90;51.20;;;;;;5055142;28;20438;-78
2022/05/23 06:13:20;;;;;;;4.75;2.70;;;23.30;51.10;;;;;;5073364;28;20526;-82
2022/05/23 06:15:46;;;;;;;3.55;2.60;;;23.30;51.60;;;;;;5053373;28;20029;-82
2022/05/23 06:18:12;;;;;;;4.88;2.67;;;23.20;52.30;;;;;;5053061;28;20091;-79
2022/05/23 06:20:38;;;;;;;5.03;2.63;;;23.20;51.80;;;;;;5052311;28;20091;-81
2022/05/23 06:23:04;;;;;;;4.95;2.65;;;23.30;52.00;;;;;;5052741;28;20033;-77
2022/05/23 06:25:31;;;;;;;5.05;2.50;;;23.30;52.30;;;;;;5052216;28;20107;-79
2022/05/23 06:27:57;;;;;;;4.85;2.60;;;23.50;52.50;;;;;;5052687;28;20039;-80
2022/05/23 06:30:23;;;;;;;4.20;2.60;;;23.50;52.50;;;;;;5052921;28;20033;-81
2022/05/23 06:32:49;;;;;;;3.85;2.58;;;23.50;52.00;;;;;;5051834;28;20525;-77
2022/05/23 06:35:15;;;;;;;4.28;2.40;;;23.60;52.00;;;;;;5052743;28;20112;-85
2022/05/23 06:37:42;;;;;;;4.72;2.20;;;23.90;51.00;;;;;;5052328;28;20032;-76
2022/05/23 06:40:11;;;;;;;4.68;2.40;;;24.00;50.80;;;;;;5052336;28;20021;-80
2022/05/23 06:42:37;;;;;;;3.70;2.10;;;23.70;50.30;;;;;;5035207;28;20037;-78
2022/05/23 06:45:05;;;;;;;3.22;2.00;;;23.00;49.40;;;;;;5052683;28;20253;-79
2022/05/23 06:47:31;;;;;;;3.65;2.00;;;23.20;49.30;;;;;;5053589;28;20037;-75
2022/05/23 06:49:56;;;;;;;7.10;2.10;;;23.90;47.90;;;;;;5054047;28;20025;-76
2022/05/23 06:52:22;;;;;;;5.10;1.95;;;24.60;47.80;;;;;;5054242;28;20021;-77
2022/05/23 06:54:48;;;;;;;3.65;1.70;;;24.20;45.90;;;;;;5054644;28;20028;-88
2022/05/23 06:57:14;;;;;;;3.63;1.70;;;22.90;46.10;;;;;;5053282;28;20535;-78
2022/05/23 06:59:40;;;;;;;3.22;1.60;;;22.20;47.20;;;;;;5054468;28;20029;-80
2022/05/23 07:02:07;;;;;;;5.40;1.98;;;22.20;47.10;;;;;;5052972;28;20077;-86
2022/05/23 07:12:56;;;;;;;3.33;1.60;;;23.30;47.70;;;;;;5061482;28;20036;-79
2022/05/23 07:15:21;;;;;;;4.07;2.38;;;23.10;47.10;;;;;;5055245;28;20032;-82
2022/05/23 07:17:48;;;;;;;6.70;2.53;;;23.10;47.70;;;;;;5052222;28;20059;-78
2022/05/23 07:20:14;;;;;;;6.28;3.03;;;22.60;47.70;;;;;;5043822;28;20418;-77
2022/05/23 07:22:53;;;;;;;3.95;2.22;;;23.30;48.40;;;;;;5053633;28;20033;-80
2022/05/23 07:25:18;;;;;;;4.57;1.92;;;23.70;47.00;;;;;;5054585;28;20029;-82
2022/05/23 07:27:44;;;;;;;4.68;2.28;;;23.20;46.00;;;;;;5051631;28;20028;-79
2022/05/23 07:30:10;;;;;;;4.75;2.30;;;23.00;47.40;;;;;;5053165;28;20063;-83
2022/05/23 07:32:36;;;;;;;5.45;2.45;;;23.50;47.60;;;;;;5052138;28;20025;-77
2022/05/23 07:35:02;;;;;;;4.78;2.40;;;24.30;46.30;;;;;;5053201;28;20025;-79
2022/05/23 07:37:28;;;;;;;4.57;2.35;;;24.70;46.70;;;;;;5053690;28;20478;-78
2022/05/23 07:39:56;;;;;;;4.93;2.40;;;24.70;45.60;;;;;;5053296;28;20530;-81
2022/05/23 07:42:22;;;;;;;4.13;2.10;;;25.10;46.60;;;;;;5051903;28;20418;-76
2022/05/23 07:44:48;;;;;;;5.32;1.80;;;25.60;45.50;;;;;;5052397;28;20029;-78
2022/05/23 07:47:14;;;;;;;5.00;2.30;;;26.00;44.60;;;;;;5054172;28;20115;-77
2022/05/23 07:49:39;;;;;;;4.03;2.17;;;26.10;44.80;;;;;;5052054;28;20021;-77
2022/05/23 07:52:05;;;;;;;3.42;1.83;;;26.20;44.90;;;;;;5052971;28;20025;-78
2022/05/23 08:02:43;;;;;;;3.67;1.63;;;26.80;42.70;;;;;;5052704;28;20098;-76
2022/05/23 08:05:11;;;;;;;3.22;1.73;;;26.40;43.30;;;;;;5054472;28;20053;-77
2022/05/23 08:07:37;;;;;;;3.33;1.70;;;26.50;43.30;;;;;;5053649;28;20032;-78
2022/05/23 08:10:04;;;;;;;4.78;1.65;;;26.60;43.90;;;;;;5052203;28;20345;-83
2022/05/23 08:12:34;;;;;;;4.10;1.70;;;26.90;44.20;;;;;;5052794;28;20021;-89
2022/05/23 08:15:00;;;;;;;3.85;1.70;;;27.00;44.80;;;;;;5052978;28;20044;-77
2022/05/23 08:17:25;;;;;;;4.30;1.80;;;27.10;42.30;;;;;;5051348;28;20383;-82
2022/05/23 08:19:51;;;;;;;5.35;1.83;;;27.00;41.50;;;;;;5052822;28;20043;-77
2022/05/23 08:22:19;;;;;;;6.32;1.65;;;26.80;42.80;;;;;;5052608;28;20017;-77
2022/05/23 08:24:44;;;;;;;7.72;2.10;;;27.00;42.80;;;;;;5051271;28;20506;-77
2022/05/23 08:27:10;;;;;;;5.00;1.90;;;26.70;42.30;;;;;;5053136;28;20051;-82
2022/05/23 08:29:36;;;;;;;3.33;1.77;;;26.50;43.40;;;;;;5051383;28;20025;-78
2022/05/23 08:32:04;;;;;;;4.90;1.95;;;27.00;42.40;;;;;;5051646;28;20361;-79
2022/05/23 08:34:31;;;;;;;3.88;1.70;;;27.40;43.20;;;;;;5053003;28;20082;-78
2022/05/23 08:36:58;;;;;;;5.63;1.90;;;27.70;42.30;;;;;;5051346;28;20429;-77
2022/05/23 08:39:25;;;;;;;3.70;1.63;;;28.20;41.10;;;;;;5052411;28;20021;-78
2022/05/23 08:41:52;;;;;;;3.45;1.70;;;28.20;41.30;;;;;;5052886;28;20021;-78
2022/05/23 08:44:44;;;;;;;2.95;1.40;;;28.50;41.10;;;;;;5052492;28;20387;-79
2022/05/23 08:47:34;;;;;;;2.88;1.45;;;28.50;41.70;;;;;;5052282;28;20506;-78
2022/05/23 08:50:16;;;;;;;4.35;1.52;;;28.30;40.60;;;;;;5052688;28;20119;-79
2022/05/23 08:53:13;;;;;;;3.10;1.40;;;28.10;40.60;;;;;;5051237;28;20120;-92
2022/05/23 08:55:50;;;;;;;3.53;1.60;;;28.40;40.70;;;;;;5032149;28;20041;-82
2022/05/23 08:58:29;;;;;;;4.38;1.60;;;28.50;40.50;;;;;;5033909;28;20029;-79
2022/05/23 09:01:01;;;;;;;5.55;1.60;;;28.80;39.80;;;;;;5034038;28;20584;-78
2022/05/23 09:03:34;;;;;;;4.45;1.90;;;28.50;39.60;;;;;;5035019;28;20057;-76
2022/05/23 09:06:34;;;;;;;5.40;1.40;;;27.60;41.00;;;;;;5019954;28;20041;-85
2022/05/23 09:09:06;;;;;;;3.92;1.55;;;26.20;41.70;;;;;;5023332;28;20033;-76
2022/05/23 09:11:38;;;;;;;3.70;1.40;;;25.40;43.30;;;;;;5018070;28;20040;-77
2022/05/23 09:14:08;;;;;;;2.92;1.40;;;25.60;42.20;;;;;;5034364;28;20033;-78
2022/05/23 09:16:48;;;;;;;3.90;1.38;;;26.10;42.00;;;;;;5034649;28;20595;-83
2022/05/23 09:19:52;;;;;;;3.42;1.40;;;26.20;41.90;;;;;;5034447;28;20365;-77
2022/05/23 09:22:32;;;;;;;2.80;1.40;;;26.40;41.90;;;;;;5034333;28;20484;-78
2022/05/23 09:25:00;;;;;;;3.45;1.50;;;26.60;40.50;;;;;;5017058;28;20091;-78
2022/05/23 09:27:36;;;;;;;4.20;1.60;;;26.70;42.70;;;;;;5033743;28;20545;-79
2022/05/23 09:30:06;;;;;;;2.72;1.40;;;27.40;41.30;;;;;;5033638;28;20057;-85
2022/05/23 09:32:36;;;;;;;3.75;1.50;;;28.00;41.20;;;;;;5037247;28;20033;-80
2022/05/23 09:35:15;;;;;;;2.38;1.35;;;28.50;41.40;;;;;;5055032;28;20036;-78
2022/05/23 09:37:44;;;;;;;2.75;1.40;;;28.20;40.10;;;;;;5051797;28;20052;-81
2022/05/23 09:40:30;;;;;;;3.00;1.40;;;27.60;41.00;;;;;;5054859;28;20025;-76
2022/05/23 09:49:05;;;;;;;4.90;1.63;;;28.30;41.90;;;;;;5055879;28;20087;-84
2022/05/23 09:51:31;;;;;;;4.40;1.40;;;27.60;40.00;;;;;;5055488;28;20423;-78
2022/05/23 09:54:02;;;;;;;3.78;1.55;;;26.90;41.00;;;;;;5054297;28;20430;-86
2022/05/23 09:56:30;;;;;;;5.63;1.70;;;27.00;41.20;;;;;;5056542;28;20032;-82
2022/05/23 09:58:59;;;;;;;4.13;1.60;;;27.60;42.60;;;;;;5055680;28;20056;-78
2022/05/23 10:01:27;;;;;;;3.22;1.48;;;28.10;41.00;;;;;;5054725;28;20040;-77
2022/05/23 10:03:54;;;;;;;52.40;3.03;;;28.20;40.30;;;;;;5055126;28;20043;-78
2022/05/23 10:06:42;;;;;;;4.68;1.80;;;28.00;41.00;;;;;;5053837;28;20028;-86
2022/05/23 10:09:21;;;;;;;4.35;1.55;;;28.70;41.10;;;;;;5054948;28;20021;-86
2022/05/23 10:11:56;;;;;;;3.00;1.58;;;29.30;40.10;;;;;;5054064;28;20082;-81
2022/05/23 10:14:24;;;;;;;3.42;1.55;;;29.70;39.90;;;;;;5054843;28;20021;-81
2022/05/23 10:16:54;;;;;;;3.78;1.60;;;29.50;39.20;;;;;;5054754;28;20384;-81
2022/05/23 10:19:33;;;;;;;3.90;1.40;;;29.90;40.50;;;;;;5054741;28;20017;-77
2022/05/23 10:22:12;;;;;;;2.60;1.40;;;29.20;38.30;;;;;;5054614;28;20468;-79
2022/05/23 10:24:47;;;;;;;6.05;1.67;;;29.00;39.50;;;;;;5054406;28;20037;-79
2022/05/23 10:27:19;;;;;;;3.20;1.40;;;29.00;41.70;;;;;;5053644;28;20029;-78
2022/05/23 10:29:52;;;;;;;2.72;1.50;;;29.50;38.70;;;;;;5054633;28;20399;-79
2022/05/23 10:32:34;;;;;;;3.22;1.50;;;30.10;40.30;;;;;;5053453;28;20052;-80
2022/05/23 10:36:25;;;;;;;3.53;1.63;;;30.60;37.70;;;;;;5085799;27;1386091;-79
2022/05/23 10:42:26;;;;;;;2.92;1.55;;;30.60;37.70;;;;;;5110693;28;20031;-80
2022/05/23 10:45:20;;;;;;;3.83;1.50;;;30.10;37.90;;;;;;5101525;28;20055;-82
2022/05/23 10:48:12;;;;;;;3.67;1.58;;;30.10;38.90;;;;;;5110747;28;20477;-80
2022/05/23 10:51:09;;;;;;;3.50;1.52;;;29.60;38.90;;;;;;5092349;28;20024;-84
2022/05/23 10:53:40;;;;;;;3.13;1.50;;;29.80;39.30;;;;;;5092576;28;20371;-85
2022/05/23 10:56:25;;;;;;;3.88;1.60;;;29.90;38.70;;;;;;5092748;28;20513;-88
2022/05/23 10:59:22;;;;;;;3.13;1.45;;;29.90;38.60;;;;;;5093466;28;20052;-84
2022/05/23 11:02:06;;;;;;;2.75;1.35;;;29.40;38.90;;;;;;5092259;28;20113;-84
2022/05/23 11:04:50;;;;;;;4.72;1.45;;;29.70;40.90;;;;;;5110123;28;20111;-80
2022/05/23 11:07:44;;;;;;;3.15;1.63;;;30.10;39.40;;;;;;5078862;28;20021;-80
2022/05/23 11:10:23;;;;;;;2.53;1.42;;;30.30;40.10;;;;;;5090464;28;20020;-78
2022/05/23 11:13:27;;;;;;;3.20;1.80;;;30.40;38.70;;;;;;5072270;28;20362;-86
2022/05/23 11:16:04;;;;;;;4.82;1.60;;;29.30;39.00;;;;;;4988494;28;20046;-81
2022/05/23 11:19:00;;;;;;;3.67;1.70;;;27.80;39.10;;;;;;4972166;28;20045;-78
2022/05/23 11:21:52;;;;;;;5.45;1.88;;;26.90;41.50;;;;;;4988556;28;20085;-80
2022/05/23 11:24:28;;;;;;;3.15;1.70;;;27.50;40.80;;;;;;4971676;28;20113;-80
2022/05/23 11:33:41;;;;;;;3.92;1.70;;;28.60;39.60;;;;;;4971285;28;20081;-80
2022/05/23 11:35:28;;;;;;;4.55;1.70;;;29.90;39.90;;;;;;4987847;28;20139;-81
2022/05/23 11:37:57;;;;;;;5.53;1.60;;;29.90;39.00;;;;;;4972597;28;20042;-85
2022/05/23 11:40:25;;;;;;;4.88;1.55;;;29.40;39.30;;;;;;4972308;28;20026;-80
2022/05/23 11:42:57;;;;;;;3.80;1.40;;;29.40;39.80;;;;;;4987692;28;20027;-82
2022/05/23 11:46:05;;;;;;;3.47;1.60;;;29.90;40.00;;;;;;4971879;28;20433;-79
2022/05/23 11:48:45;;;;;;;3.30;1.50;;;30.50;39.10;;;;;;4974754;28;20054;-81
2022/05/23 11:51:11;;;;;;;;;;;30.60;38.60;;;;;;4997962;28;20512;-84
2022/05/23 11:53:59;;;;;;;3.15;1.40;;;29.50;37.60;;;;;;5075582;28;19909;-93
2022/05/23 11:56:38;;;;;;;3.20;1.50;;;29.00;38.60;;;;;;4975478;28;20043;-94
2022/05/23 11:59:07;;;;;;;2.45;1.50;;;28.60;38.20;;;;;;4959016;28;20037;-79
2022/05/23 12:01:34;;;;;;;3.97;1.85;;;28.50;38.60;;;;;;4975290;28;20043;-82
2022/05/23 12:04:13;;;;;;;3.10;1.63;;;28.50;38.90;;;;;;4974978;28;20023;-91
2022/05/23 12:06:41;;;;;;;2.97;1.70;;;28.70;38.30;;;;;;4974265;28;20030;-80
2022/05/23 12:09:29;;;;;;;3.38;1.55;;;29.10;39.20;;;;;;4958401;28;20029;-79
2022/05/23 12:12:40;;;;;;;4.35;1.70;;;29.70;40.60;;;;;;4959035;28;20019;-82
2022/05/23 12:15:06;;;;;;;6.22;1.85;;;30.10;38.50;;;;;;4897936;29;20048;-84
2022/05/23 12:17:32;;;;;;;4.35;1.80;;;30.20;38.50;;;;;;4898295;29;20041;-80
2022/05/23 12:20:02;;;;;;;4.30;1.90;;;30.20;38.80;;;;;;4898049;29;20041;-88
2022/05/23 12:22:57;;;;;;;3.08;1.92;;;30.50;38.50;;;;;;4882653;29;20029;-88
2022/05/23 12:25:25;;;;;;;4.85;1.80;;;30.70;38.70;;;;;;4882069;29;20083;-80
2022/05/23 12:27:51;;;;;;;4.43;1.60;;;30.40;38.00;;;;;;4881943;29;20076;-82
2022/05/23 12:30:25;;;;;;;4.07;1.90;;;30.40;38.30;;;;;;4898576;29;20123;-81
2022/05/23 12:33:04;;;;;;;4.28;1.73;;;30.60;38.60;;;;;;4915531;28;20058;-82
2022/05/23 12:35:39;;;;;;;3.30;1.60;;;30.80;39.00;;;;;;4974042;28;20046;-81
2022/05/23 12:38:17;;;;;;;4.25;1.60;;;30.60;39.50;;;;;;4974586;28;20050;-80
2022/05/23 12:41:09;;;;;;;3.20;1.60;;;30.80;39.80;;;;;;4973993;28;20493;-81
2022/05/23 12:44:11;;;;;;;3.00;1.38;;;30.50;37.90;;;;;;4973991;28;20027;-80
2022/05/23 12:46:45;;;;;;;3.58;1.52;;;29.80;39.60;;;;;;4957698;28;20486;-78
2022/05/23 12:49:38;;;;;;;4.53;2.33;;;30.00;39.70;;;;;;4973896;28;20031;-80
2022/05/23 12:52:26;;;;;;;3.83;1.88;;;30.20;40.90;;;;;;4963321;28;20037;-80
2022/05/23 12:54:51;;;;;;;4.22;2.75;;;30.50;38.00;;;;;;4996481;28;20045;-80
2022/05/23 12:57:46;;;;;;;4.93;1.88;;;30.80;39.20;;;;;;5013785;28;20041;-85
2022/05/23 13:00:38;;;;;;;5.75;1.75;;;30.90;37.90;;;;;;5012347;28;20034;-81
2022/05/23 13:03:24;;;;;;;5.50;2.20;;;30.80;39.00;;;;;;5012695;28;20056;-81
2022/05/23 13:06:00;;;;;;;3.97;1.70;;;30.80;40.40;;;;;;5011698;28;20069;-81
2022/05/23 13:08:44;;;;;;;3.17;1.65;;;31.00;39.60;;;;;;4996526;28;20068;-80
2022/05/23 13:11:17;;;;;;;4.70;1.90;;;30.90;38.40;;;;;;4996101;28;20033;-81
2022/05/23 13:13:45;;;;;;;9.38;5.03;;;31.00;38.60;;;;;;4997848;28;20506;-81
2022/05/23 13:16:20;;;;;;;7.28;5.07;;;30.90;39.10;;;;;;4995487;28;20049;-81
2022/05/23 13:24:48;;;;;;;3.00;1.60;;;30.10;39.80;;;;;;5012586;28;20036;-79
2022/05/23 13:27:05;;;;;;;5.35;1.83;;;30.20;39.00;;;;;;5012009;28;20018;-81
2022/05/23 13:29:34;;;;;;;3.92;1.90;;;30.10;39.60;;;;;;5042832;28;20070;-83
2022/05/23 13:32:04;;;;;;;4.30;1.80;;;29.80;40.30;;;;;;5074993;28;20143;-80
2022/05/23 13:34:35;;;;;;;5.63;1.95;;;29.80;39.40;;;;;;5073954;28;20021;-86
2022/05/23 13:37:02;;;;;;;3.85;1.95;;;30.10;38.90;;;;;;5056122;28;20039;-86
2022/05/23 13:39:29;;;;;;;4.00;1.80;;;30.50;39.40;;;;;;5055661;28;20078;-80
2022/05/23 13:41:56;;;;;;;3.42;1.73;;;30.70;40.10;;;;;;5055338;28;20025;-80
2022/05/23 13:44:27;;;;;;;3.83;2.42;;;30.90;39.80;;;;;;5073973;28;20013;-83
2022/05/23 13:47:07;;;;;;;3.47;1.80;;;31.20;39.10;;;;;;5055725;28;20025;-80
2022/05/23 13:49:56;;;;;;;5.15;1.90;;;30.70;37.90;;;;;;5056647;28;20066;-79
2022/05/23 13:52:27;;;;;;;5.38;2.10;;;30.30;39.20;;;;;;5055330;28;20146;-80
2022/05/23 13:55:00;;;;;;;3.80;2.05;;;30.80;39.00;;;;;;5073588;28;20482;-77
2022/05/23 13:57:32;;;;;;;3.78;1.70;;;31.20;39.20;;;;;;5073558;28;20056;-83
2022/05/23 14:00:05;;;;;;;4.05;2.03;;;31.30;39.10;;;;;;5074042;28;20067;-83
2022/05/23 14:02:41;;;;;;;3.53;2.00;;;31.30;38.00;;;;;;5073348;28;20062;-80
2022/05/23 14:05:08;;;;;;;5.45;2.10;;;31.40;38.80;;;;;;5055283;28;20024;-80
2022/05/23 14:07:39;;;;;;;4.28;1.88;;;31.30;37.80;;;;;;5072973;28;20016;-80
2022/05/23 14:10:09;;;;;;;4.80;1.90;;;31.40;38.30;;;;;;5054947;28;20116;-80
2022/05/23 14:12:36;;;;;;;4.03;2.00;;;31.60;38.40;;;;;;5073096;28;20040;-81
2022/05/23 14:15:05;;;;;;;3.78;1.90;;;31.50;38.30;;;;;;5072556;28;20036;-80